Vremea acum in Sibiu - Romania

Vrei sa afli care e starea vremii acum in Sibiu - Romania? Dorim sa iti furnizam starea vremii pentru Sibiu - Romania. Starea vremii Sibiu - Romania pentru astazi.

Vremea acum in Sibiu

Temperatura: 16 °C

Se simte ca: 16 °C
Innorat: 25 %
Precipitatii: 0 %
Presiune atmosferica: 1018 hPa
Umiditate: 77%
Vizibilitate: 10 km
Vantul bate din SSW cu 0 km/h

Evolutia vremii in Sibiu pe ore

Ora: 01:00
Parțial noros
Temperatura: 14°C
Sansa de precipitatii: 0%
Ora Descriere Temp Se simte Precipitatii Umiditate Vant
00:00Parțial noros14.5°14.6°0%68%SSW 4.7 KM/H
01:00Parțial noros14°14.1°0%71%SSW 5 KM/H
02:00Parțial noros13.4°13.6°0%73%SSW 5 KM/H
03:00Parțial noros13.1°13.4°0%74%SSW 4.7 KM/H
04:00Parțial noros12.9°13.1°0%75%SSW 4.7 KM/H
05:00Parțial noros12.6°12.9°0%76%SSW 4.3 KM/H
06:00Parțial noros14.9°15.1°0%72%SSE 3.2 KM/H
07:00Parțial noros17.2°17.3°0%67%E 1.8 KM/H
08:00Parțial noros19.5°19.5°0%62%NNE 0.7 KM/H
09:00Parțial noros21°21°0%57%NNE 2.2 KM/H
10:00Parțial noros22.4°23.2°0%53%NNE 3.6 KM/H
11:00Parțial noros23.9°25.1°0%48%N 5 KM/H
12:00Parțial noros24.7°25.5°0%45%ESE 5 KM/H
13:00Parțial noros25.6°25.9°0%42%SW 4.7 KM/H
14:00Parțial noros26.4°26.3°0%39%N 4.7 KM/H
15:00Parțial noros26.3°26.3°0%39%WNW 3.6 KM/H
16:00Parțial noros26.3°26.2°0%40%WSW 2.2 KM/H
17:00Parțial noros26.2°26.2°0%40%SSW 1.1 KM/H
18:00Parțial noros24.9°26.2°0%46%SSW 2.2 KM/H
19:00Parțial noros23.5°26.2°0%52%SSW 2.9 KM/H
20:00Parțial noros22.2°26.2°0%58%SSW 4 KM/H
21:00Parțial noros20.9°20.9°0%59%SSW 4.3 KM/H
22:00Parțial noros19.5°19.5°0%60%SSW 4.7 KM/H
23:00Parțial noros18.2°18.2°0%61%SSW 5 KM/H